createdAt,value
2023-02-03T00:01:40.449Z,4.88
2023-02-03T00:09:48.593Z,12.35
2023-02-03T00:17:54.076Z,8.73
2023-02-03T00:26:09.196Z,5.30
2023-02-03T00:34:15.218Z,5.90
2023-02-03T00:42:23.215Z,6.88
2023-02-03T00:50:28.997Z,4.88
2023-02-03T00:58:37.415Z,3.65
2023-02-03T01:06:44.314Z,4.75
2023-02-03T01:14:52.403Z,3.78
2023-02-03T01:22:57.800Z,2.80
2023-02-03T01:31:15.819Z,3.40
2023-02-03T01:39:21.697Z,3.55
2023-02-03T01:47:34.045Z,5.32
2023-02-03T01:55:43.599Z,4.30
2023-02-03T02:03:55.816Z,4.22
2023-02-03T02:12:01.191Z,4.07
2023-02-03T02:20:31.972Z,3.58
2023-02-03T02:28:59.113Z,6.32
2023-02-03T02:37:16.459Z,6.18
2023-02-03T02:45:29.303Z,4.50
2023-02-03T02:53:41.574Z,4.75
2023-02-03T03:01:48.466Z,6.07
2023-02-03T03:10:01.722Z,4.53
2023-02-03T03:18:12.730Z,6.70
2023-02-03T03:26:28.032Z,7.13
2023-02-03T03:34:34.827Z,7.95
2023-02-03T03:42:48.674Z,9.93
2023-02-03T03:50:59.187Z,9.43
2023-02-03T03:59:09.713Z,9.60
2023-02-03T04:07:16.934Z,11.70
2023-02-03T04:15:25.188Z,8.25
2023-02-03T04:23:30.709Z,6.70
2023-02-03T04:31:39.043Z,9.63
2023-02-03T04:39:44.617Z,9.02
2023-02-03T04:47:55.920Z,11.65
2023-02-03T04:56:01.552Z,12.43
2023-02-03T05:04:09.642Z,6.90
2023-02-03T05:12:15.184Z,12.80
2023-02-03T05:20:23.734Z,14.02
2023-02-03T05:28:29.288Z,15.25
2023-02-03T05:36:37.190Z,14.85
2023-02-03T05:44:42.813Z,14.38
2023-02-03T05:52:50.916Z,14.00
2023-02-03T06:00:56.380Z,15.80
2023-02-03T06:09:04.810Z,12.05
2023-02-03T06:17:11.001Z,19.60
2023-02-03T06:25:19.036Z,15.65
2023-02-03T06:33:24.735Z,14.52
2023-02-03T06:41:33.022Z,13.40
2023-02-03T06:49:38.383Z,13.23
2023-02-03T06:57:50.818Z,13.45
2023-02-03T07:05:56.217Z,14.85
2023-02-03T07:14:04.264Z,12.38
2023-02-03T07:22:09.782Z,13.50
2023-02-03T07:30:18.688Z,13.98
2023-02-03T07:38:25.190Z,11.07
2023-02-03T07:46:33.472Z,12.20
2023-02-03T07:54:38.994Z,10.15
2023-02-03T08:02:47.783Z,9.52
2023-02-03T08:10:53.175Z,16.98
2023-02-03T08:19:01.263Z,12.32
2023-02-03T08:27:06.777Z,14.23
2023-02-03T08:35:14.931Z,11.68
2023-02-03T08:43:20.302Z,8.30
2023-02-03T08:51:28.365Z,6.13
2023-02-03T08:59:36.243Z,10.07
2023-02-03T09:07:46.067Z,9.27
2023-02-03T09:15:51.555Z,6.10
2023-02-03T09:24:03.411Z,6.85
2023-02-03T09:32:11.089Z,4.82
2023-02-03T09:40:26.437Z,7.32
2023-02-03T09:48:37.702Z,3.88
2023-02-03T09:56:52.528Z,7.35
2023-02-03T10:05:03.329Z,5.82
2023-02-03T10:13:22.065Z,7.97
2023-02-03T10:21:39.091Z,6.53
2023-02-03T10:29:47.661Z,5.97
2023-02-03T10:37:56.657Z,7.15
2023-02-03T10:46:04.813Z,7.78
2023-02-03T10:54:32.116Z,7.97
2023-02-03T11:02:40.446Z,6.25
2023-02-03T11:10:46.866Z,9.88
2023-02-03T11:19:00.035Z,5.78
2023-02-03T11:27:08.329Z,7.07
2023-02-03T11:35:24.341Z,12.60
2023-02-03T11:43:30.656Z,8.27
2023-02-03T11:51:49.019Z,6.60
2023-02-03T12:00:15.035Z,6.28
2023-02-03T12:08:40.163Z,9.95
2023-02-03T12:17:23.799Z,9.43
2023-02-03T12:25:40.475Z,5.38
2023-02-03T12:33:51.615Z,7.32
2023-02-03T12:42:04.658Z,6.65
2023-02-03T12:50:17.906Z,5.27
2023-02-03T12:58:34.282Z,6.32
2023-02-03T13:06:47.436Z,8.27
2023-02-03T13:15:02.653Z,5.87
2023-02-03T13:23:11.632Z,7.28
2023-02-03T13:31:33.868Z,6.88
2023-02-03T13:39:58.903Z,10.55
2023-02-03T13:48:14.261Z,9.18
2023-02-03T13:56:24.859Z,7.88
2023-02-03T14:04:57.647Z,6.60
2023-02-03T14:13:04.530Z,11.00
2023-02-03T14:21:20.635Z,8.20
2023-02-03T14:29:32.271Z,7.57
2023-02-03T14:37:40.521Z,9.52
2023-02-03T14:46:08.593Z,12.07
2023-02-03T14:54:31.103Z,11.55
2023-02-03T15:02:37.656Z,16.77
2023-02-03T15:10:47.963Z,20.45
2023-02-03T15:19:09.053Z,14.25
2023-02-03T15:27:27.498Z,13.50
2023-02-03T15:35:36.837Z,16.05
2023-02-03T15:43:48.835Z,21.33
2023-02-03T15:51:58.958Z,16.33
2023-02-03T16:00:14.205Z,17.25
2023-02-03T16:08:43.920Z,17.48
2023-02-03T16:17:06.269Z,19.13
2023-02-03T16:25:21.863Z,17.95
2023-02-03T16:33:47.130Z,17.10
2023-02-03T16:42:04.990Z,18.42
2023-02-03T16:50:39.665Z,14.38
2023-02-03T16:58:52.197Z,13.07
2023-02-03T17:07:00.572Z,20.48
2023-02-03T17:15:13.273Z,18.60
2023-02-03T17:23:22.767Z,13.90
2023-02-03T17:31:28.619Z,13.35
2023-02-03T17:56:23.454Z,21.27
2023-02-03T18:04:31.507Z,15.00
2023-02-03T18:12:39.750Z,17.00
2023-02-03T18:20:48.704Z,17.75
2023-02-03T18:28:58.053Z,18.77
2023-02-03T18:37:04.262Z,19.48
2023-02-03T18:45:13.928Z,20.70
2023-02-03T18:53:19.731Z,19.67
2023-02-03T19:01:29.923Z,25.83
2023-02-03T19:09:35.589Z,27.00
2023-02-03T19:17:43.908Z,26.48
2023-02-03T19:25:55.392Z,35.35
2023-02-03T19:34:03.718Z,43.13
2023-02-03T19:42:09.260Z,37.38
2023-02-03T19:50:17.528Z,32.40
2023-02-03T19:58:23.661Z,33.45
2023-02-03T20:06:31.856Z,31.05
2023-02-03T20:14:37.502Z,27.70
2023-02-03T20:22:45.631Z,25.60
2023-02-03T20:30:54.309Z,25.52
2023-02-03T20:39:02.328Z,23.67
2023-02-03T20:47:11.793Z,26.63
2023-02-03T20:55:22.054Z,24.85
2023-02-03T21:03:55.480Z,22.45
2023-02-03T21:12:03.562Z,17.05
2023-02-03T21:20:24.595Z,15.52
2023-02-03T21:28:35.261Z,13.25
2023-02-03T21:36:41.570Z,12.38
2023-02-03T21:44:49.792Z,18.15
2023-02-03T21:52:55.285Z,14.00
2023-02-03T22:01:06.398Z,12.98
2023-02-03T22:09:28.885Z,14.55
2023-02-03T22:17:56.396Z,10.18
2023-02-03T22:26:03.485Z,11.32
2023-02-03T22:34:12.183Z,9.85
2023-02-03T22:42:17.845Z,11.10
2023-02-03T22:50:35.049Z,9.05
2023-02-03T22:58:41.929Z,9.48
2023-02-03T23:06:49.896Z,11.13
2023-02-03T23:14:55.318Z,9.82
2023-02-03T23:23:03.393Z,11.60
2023-02-03T23:31:09.279Z,7.95
2023-02-03T23:39:17.435Z,7.70
2023-02-03T23:47:23.066Z,9.57
2023-02-03T23:55:31.546Z,11.25
